Airfield :







YOU CAN JOIN US ON...

 
LOGIN :

Register | Disclaimer

   EN    FR    IT 

 









Legend :    VFR   Marginal VFR   IFR   Intensive IFR   Very Intensive IFR
Visi :
Ceiling :
>= 8 km
>= 3000ft
5 to 8 km
1000 to 3000 ft
1500m to 5 km
500 to 1000 ft
800 to 1500m
200 to 500 ft
< 800m
< 200 ft
Symbols :   Thunderstorms  Fog  Heavy snow  Heavy precipitations  Wind > 20 kt






- Airport Elevation : 83 ft


KBHB - Hancock County-Bar Harbor

CURRENT METAR :
  • 240456Z AUTO 23004KT 10SM CLR 09/06 A3001 RMK AO2 SLP163 T00890056

EXPIRED METARs :
  • 240356Z AUTO 24004KT 10SM CLR 09/07 A2999 RMK AO2 SLP156 T00890067 401500089
  • 240256Z AUTO 26004KT 10SM CLR 10/07 A2997 RMK AO2 SLP150 T01000067 51036

TAF KBHB
Valid from the 24 at 06:00 until the 25 at 06:00 UTC


240524Z 2406/2506 26007KT P6SM SKC
FM241500 24009KT P6SM FEW100
FM242000 22012KT P6SM FEW100
FM250300 24010KT P6SM SCT090



MET'MAP, your aeronautical weather chart ! - Copyright ORBIFLY December 2007 - Disclaimer

ORBIFLY MET'MAP TEAM :

Programming & Development : Alexandra Zaïnal
Concept & Development : Baudouin d'Aumeries
Co-Development & Prog : Marc-Olivier Méhu
Technical & hardware support : Manuel Goepfert

Contact : metmap@orbifly.com




SOURCES & CREDITS :

   NOAA